Time;durP1;ratioP1;P1;durP2;ratioP2;P2;SDS_P1;SDS_P2;PMS_P1;PMS_P2;Temp;Humidity;BMP_temperature;BMP_pressure;BME280_temperature;BME280_humidity;BME280_pressure;Samples;Min_cycle;Max_cycle;Signal;HPM_P1;HPM_P2
2022/10/06 00:01:13;;;;;;;0.40;0.40;;;;;;;16.04;71.85;101661.66;5157203;28;20057;-82
2022/10/06 00:03:44;;;;;;;0.20;0.20;;;;;;;16.11;71.85;101664.97;5160558;28;20078;-82
2022/10/06 00:06:17;;;;;;;0.20;0.20;;;;;;;15.98;72.68;101664.53;5144161;28;20066;-82
2022/10/06 00:08:47;;;;;;;0.40;0.40;;;;;;;15.84;73.49;101664.13;5141719;28;20110;-83
2022/10/06 00:11:18;;;;;;;1.00;0.85;;;;;;;16.01;71.43;101672.34;5108268;28;20448;-82
2022/10/06 00:13:49;;;;;;;0.20;0.20;;;;;;;15.93;72.84;101666.47;5124409;28;20039;-82
2022/10/06 00:16:23;;;;;;;0.60;0.60;;;;;;;16.11;71.88;101674.69;5173643;28;20117;-82
2022/10/06 00:18:55;;;;;;;0.20;0.20;;;;;;;16.10;71.35;101689.72;5151213;28;20055;-83
2022/10/06 00:21:26;;;;;;;0.68;0.68;;;;;;;16.03;71.90;101690.84;5107629;28;20037;-83
2022/10/06 00:23:58;;;;;;;0.30;0.30;;;;;;;15.94;72.69;101689.38;5153616;28;20038;-83
2022/10/06 00:26:29;;;;;;;0.40;0.40;;;;;;;16.05;71.16;101694.28;5142768;28;20046;-82
2022/10/06 00:29:00;;;;;;;0.20;0.20;;;;;;;16.08;71.29;101699.50;5107310;28;20046;-82
2022/10/06 00:31:31;;;;;;;0.47;0.43;;;;;;;16.20;70.83;101696.41;5108231;28;20741;-82
2022/10/06 00:34:07;;;;;;;0.20;0.20;;;;;;;16.24;70.04;101696.31;5143617;28;20422;-82
2022/10/06 00:36:38;;;;;;;0.30;0.30;;;;;;;16.25;70.30;101698.88;5137160;28;20411;-82
2022/10/06 00:39:08;;;;;;;0.65;0.65;;;;;;;16.26;70.18;101702.41;5122739;28;20117;-82
2022/10/06 00:41:41;;;;;;;0.63;0.55;;;;;;;16.30;69.69;101712.84;5120890;28;20201;-82
2022/10/06 00:44:13;;;;;;;1.00;0.57;;;;;;;16.15;70.53;101711.59;5140503;28;20054;-81
2022/10/06 00:46:51;;;;;;;0.20;0.20;;;;;;;15.92;70.90;101715.03;5121058;28;20499;-81
2022/10/06 00:49:29;;;;;;;0.20;0.20;;;;;;;15.80;71.21;101723.34;5110706;28;20055;-82
2022/10/06 00:52:06;;;;;;;3.63;0.93;;;;;;;15.79;71.40;101724.25;5121753;28;20101;-82
2022/10/06 00:54:37;;;;;;;0.40;0.40;;;;;;;15.74;71.15;101732.34;5140312;28;20526;-80
2022/10/06 00:57:08;;;;;;;0.28;0.28;;;;;;;15.70;71.04;101736.88;5155324;28;20198;-82
2022/10/06 00:59:40;;;;;;;0.30;0.30;;;;;;;15.67;71.18;101738.75;5104082;28;20122;-82
2022/10/06 01:02:56;;;;;;;1.35;1.05;;;;;;;15.45;71.76;101744.75;5123227;28;20381;-81
2022/10/06 01:05:30;;;;;;;0.20;0.20;;;;;;;15.65;70.74;101744.09;5037633;29;20044;-82
2022/10/06 01:08:10;;;;;;;0.20;0.20;;;;;;;15.51;71.73;101744.53;5114594;28;20563;-83
2022/10/06 01:10:40;;;;;;;0.50;0.50;;;;;;;15.41;72.03;101754.53;5107889;28;20049;-82
2022/10/06 01:13:12;;;;;;;0.40;0.40;;;;;;;15.56;71.09;101749.69;5106421;28;20059;-82
2022/10/06 01:15:55;;;;;;;0.20;0.20;;;;;;;15.52;71.06;101762.16;5138303;28;20109;-81
2022/10/06 01:18:27;;;;;;;;;;;;;;;15.55;70.87;101758.53;5137021;28;20046;-83
2022/10/06 01:21:27;;;;;;;0.20;0.20;;;;;;;15.35;71.56;101765.28;5139306;28;19925;-82
2022/10/06 01:23:58;;;;;;;0.20;0.20;;;;;;;15.14;72.58;101765.94;5119445;28;20051;-82
2022/10/06 01:26:30;;;;;;;0.93;0.50;;;;;;;15.25;71.88;101771.75;5121101;28;20110;-83
2022/10/06 01:29:01;;;;;;;0.32;0.32;;;;;;;15.15;72.36;101775.63;5151371;28;20039;-83
2022/10/06 01:31:32;;;;;;;6.90;0.90;;;;;;;15.42;71.59;101765.97;5151432;28;20047;-82
2022/10/06 01:34:03;;;;;;;0.20;0.20;;;;;;;15.11;72.62;101778.34;5137480;28;20051;-82
2022/10/06 01:36:34;;;;;;;0.30;0.30;;;;;;;15.05;72.67;101780.28;5144461;28;20034;-81
2022/10/06 01:39:04;;;;;;;0.20;0.20;;;;;;;15.04;72.84;101784.72;5129456;28;20066;-82
2022/10/06 01:41:38;;;;;;;0.73;0.73;;;;;;;15.09;72.87;101790.72;5163492;28;20038;-82
2022/10/06 01:44:09;;;;;;;1.67;0.50;;;;;;;15.06;72.41;101793.47;5093977;28;20410;-82
2022/10/06 01:46:40;;;;;;;3.50;0.98;;;;;;;15.02;72.75;101796.25;5156308;28;20131;-82
2022/10/06 01:49:10;;;;;;;1.27;1.15;;;;;;;14.95;72.67;101801.72;5151419;28;20110;-82
2022/10/06 01:51:41;;;;;;;0.30;0.30;;;;;;;14.99;72.13;101801.59;5123006;28;20645;-81
2022/10/06 01:54:12;;;;;;;0.20;0.20;;;;;;;15.01;71.77;101790.06;5138397;28;20496;-83
2022/10/06 01:56:43;;;;;;;0.20;0.20;;;;;;;14.97;71.71;101804.31;5156653;28;20035;-82
2022/10/06 01:59:14;;;;;;;0.32;0.32;;;;;;;14.91;71.78;101807.97;5153822;28;20088;-82
2022/10/06 02:01:45;;;;;;;0.28;0.28;;;;;;;14.89;71.10;101809.78;5123362;28;20043;-82
2022/10/06 02:04:15;;;;;;;0.40;0.40;;;;;;;14.96;71.15;101818.41;5104792;28;20130;-82
2022/10/06 02:06:47;;;;;;;1.23;0.95;;;;;;;15.05;70.60;101812.00;5151380;28;20039;-82
2022/10/06 02:09:18;;;;;;;0.50;0.50;;;;;;;15.01;70.67;101818.28;5121395;28;20043;-82
2022/10/06 02:11:49;;;;;;;0.88;0.88;;;;;;;14.90;70.74;101823.88;5123245;28;20552;-82
2022/10/06 02:14:20;;;;;;;0.20;0.20;;;;;;;14.90;70.97;101831.81;5138403;28;20073;-82
2022/10/06 02:16:50;;;;;;;0.47;0.47;;;;;;;14.99;70.58;101834.22;5105589;28;20689;-82
2022/10/06 02:19:22;;;;;;;0.77;0.77;;;;;;;15.01;70.42;101832.38;5105169;28;20700;-82
2022/10/06 02:21:54;;;;;;;0.20;0.20;;;;;;;15.07;69.61;101840.16;5125120;28;20548;-82
2022/10/06 02:24:25;;;;;;;0.60;0.60;;;;;;;15.13;69.57;101844.38;5122795;28;20049;-83
2022/10/06 02:26:55;;;;;;;0.30;0.30;;;;;;;15.21;69.57;101846.81;5124635;28;20286;-83
2022/10/06 02:29:26;;;;;;;0.40;0.40;;;;;;;15.13;69.99;101843.50;5106344;28;20048;-83
2022/10/06 02:31:56;;;;;;;0.20;0.20;;;;;;;15.11;70.20;101847.06;5102968;28;20042;-83
2022/10/06 02:34:28;;;;;;;0.20;0.20;;;;;;;15.13;69.50;101851.44;5141175;28;20161;-83
2022/10/06 02:36:59;;;;;;;0.25;0.25;;;;;;;15.04;70.11;101855.22;5176802;28;20053;-81
2022/10/06 02:39:34;;;;;;;1.17;1.02;;;;;;;14.96;70.76;101866.00;5171773;28;20039;-81
2022/10/06 02:42:05;;;;;;;0.43;0.43;;;;;;;14.84;71.20;101861.91;5172212;28;20085;-81
2022/10/06 02:44:37;;;;;;;5.93;0.63;;;;;;;14.78;71.21;101865.56;5123585;28;20468;-82
2022/10/06 02:47:15;;;;;;;10.43;1.58;;;;;;;14.93;70.58;101874.00;5140128;28;20117;-82
2022/10/06 02:49:46;;;;;;;1.02;0.55;;;;;;;14.97;70.39;101870.38;5117340;28;20050;-80
2022/10/06 02:52:22;;;;;;;1.08;1.08;;;;;;;15.04;69.96;101871.94;5140301;28;20046;-80
2022/10/06 02:54:52;;;;;;;0.28;0.28;;;;;;;15.06;69.63;101880.69;5137019;28;20055;-80
2022/10/06 02:57:23;;;;;;;0.20;0.20;;;;;;;15.09;69.32;101880.59;5157958;28;20038;-80
2022/10/06 02:59:53;;;;;;;1.05;0.95;;;;;;;15.01;69.55;101882.56;5099613;28;20108;-80
2022/10/06 03:02:29;;;;;;;0.32;0.32;;;;;;;14.82;69.74;101882.22;5094429;28;20109;-80
2022/10/06 03:04:59;;;;;;;2.10;1.00;;;;;;;14.85;69.69;101897.09;5131000;28;20047;-81
2022/10/06 03:07:30;;;;;;;0.38;0.38;;;;;;;14.90;69.55;101896.09;5124152;28;20039;-81
2022/10/06 03:10:00;;;;;;;0.52;0.35;;;;;;;14.82;69.11;101899.84;5090080;28;20054;-80
2022/10/06 03:12:31;;;;;;;0.43;0.43;;;;;;;14.76;69.34;101903.50;5139598;28;20963;-80
2022/10/06 03:15:02;;;;;;;8.52;1.60;;;;;;;14.90;68.82;101909.28;5122758;28;20043;-81
2022/10/06 03:17:32;;;;;;;0.20;0.20;;;;;;;14.86;68.92;101909.41;5139250;28;20090;-80
2022/10/06 03:20:05;;;;;;;0.20;0.20;;;;;;;14.84;68.42;101911.22;5138222;28;20125;-81
2022/10/06 03:22:35;;;;;;;0.83;0.83;;;;;;;14.85;68.81;101918.25;5137780;28;20035;-80
2022/10/06 03:25:10;;;;;;;0.30;0.30;;;;;;;14.71;68.92;101935.34;5103925;28;20455;-81
2022/10/06 03:27:40;;;;;;;1.25;0.80;;;;;;;14.54;69.17;101930.44;5107842;28;20053;-80
2022/10/06 03:30:11;;;;;;;2.05;0.77;;;;;;;14.65;68.53;101932.81;5101236;28;20031;-81
2022/10/06 03:32:42;;;;;;;0.68;0.68;;;;;;;14.67;68.86;101941.59;5124936;28;20515;-80
2022/10/06 03:35:12;;;;;;;0.43;0.43;;;;;;;14.77;68.03;101940.44;5112115;28;20043;-80
2022/10/06 03:37:43;;;;;;;0.20;0.20;;;;;;;14.56;68.31;101949.75;5130008;28;20711;-81
2022/10/06 03:40:13;;;;;;;0.47;0.47;;;;;;;14.70;68.04;101945.94;5152981;28;20484;-81
2022/10/06 03:42:44;;;;;;;3.40;1.23;;;;;;;14.55;68.09;101970.91;5128911;28;20320;-81
2022/10/06 03:45:14;;;;;;;0.32;0.32;;;;;;;14.55;67.41;101974.41;5138165;28;20042;-80
2022/10/06 03:47:45;;;;;;;0.43;0.43;;;;;;;14.47;67.79;101966.69;5122660;28;20669;-81
2022/10/06 03:50:16;;;;;;;0.30;0.30;;;;;;;14.51;67.62;101971.88;5149322;28;20046;-80
2022/10/06 03:52:50;;;;;;;0.68;0.68;;;;;;;14.59;67.29;101975.19;5122525;28;20034;-80
2022/10/06 03:55:20;;;;;;;0.30;0.30;;;;;;;14.64;67.20;101990.03;5106491;28;20795;-81
2022/10/06 03:57:51;;;;;;;0.30;0.30;;;;;;;14.59;67.35;101991.06;5121597;28;20245;-81
2022/10/06 04:00:22;;;;;;;1.90;0.43;;;;;;;14.42;67.67;102004.66;5151760;28;20058;-81
2022/10/06 04:02:52;;;;;;;3.15;1.05;;;;;;;14.47;67.49;102008.06;5104855;28;20094;-81
2022/10/06 04:05:22;;;;;;;0.30;0.30;;;;;;;14.39;67.08;102010.00;5122196;28;20050;-81
2022/10/06 04:07:53;;;;;;;0.63;0.63;;;;;;;14.37;66.93;102010.03;5137027;28;20038;-81
2022/10/06 04:10:24;;;;;;;1.55;0.50;;;;;;;14.45;67.38;102026.59;5122399;28;20050;-81
2022/10/06 04:12:54;;;;;;;4.68;1.85;;;;;;;14.38;67.02;102019.69;5142365;28;20050;-83
2022/10/06 04:15:24;;;;;;;0.20;0.20;;;;;;;14.21;66.62;102021.84;5110180;28;20498;-83
2022/10/06 04:17:55;;;;;;;1.05;0.75;;;;;;;14.30;67.17;102026.94;5091840;28;20062;-83
2022/10/06 04:20:26;;;;;;;0.10;0.10;;;;;;;14.23;66.50;102035.88;5122461;28;20039;-83
2022/10/06 04:22:57;;;;;;;0.85;0.40;;;;;;;14.28;66.28;102034.00;5153024;28;20046;-83
2022/10/06 04:25:27;;;;;;;0.20;0.20;;;;;;;14.27;65.98;102038.44;5130861;28;20038;-84
2022/10/06 04:27:58;;;;;;;0.30;0.30;;;;;;;14.38;66.22;102040.81;5141459;28;20037;-82
2022/10/06 04:30:29;;;;;;;0.45;0.35;;;;;;;14.37;65.99;102044.38;5108952;28;20622;-83
2022/10/06 04:32:59;;;;;;;0.50;0.50;;;;;;;14.34;66.07;102054.97;5124007;28;20078;-84
2022/10/06 04:35:30;;;;;;;0.30;0.30;;;;;;;14.36;65.64;102053.19;5159853;28;20047;-82
2022/10/06 04:38:00;;;;;;;0.32;0.32;;;;;;;14.27;65.71;102051.63;5138653;28;20057;-83
2022/10/06 04:40:33;;;;;;;2.10;1.10;;;;;;;14.27;65.65;102059.53;5120681;28;20030;-82
2022/10/06 04:43:04;;;;;;;0.45;0.45;;;;;;;14.32;65.31;102067.38;5111718;28;20047;-83
2022/10/06 04:45:35;;;;;;;2.15;0.93;;;;;;;14.26;65.65;102068.38;5143866;28;20034;-82
2022/10/06 04:48:05;;;;;;;2.25;1.98;;;;;;;14.17;65.50;102069.41;5105159;28;20141;-84
2022/10/06 04:50:36;;;;;;;0.35;0.35;;;;;;;14.21;65.06;102072.00;5120881;28;20138;-83
2022/10/06 04:53:06;;;;;;;2.30;0.90;;;;;;;14.06;64.78;102079.34;5163912;28;20046;-83
2022/10/06 04:55:37;;;;;;;0.65;0.65;;;;;;;13.61;65.80;102085.47;5155073;28;20053;-83
2022/10/06 04:58:07;;;;;;;6.22;0.43;;;;;;;13.53;65.94;102082.09;5151015;28;20500;-83
2022/10/06 05:00:38;;;;;;;3.40;1.27;;;;;;;13.57;66.29;102089.03;5106331;28;20115;-83
2022/10/06 05:03:08;;;;;;;0.75;0.75;;;;;;;13.34;66.83;102087.63;5135948;28;20042;-84
2022/10/06 05:05:39;;;;;;;0.43;0.43;;;;;;;13.59;66.18;102089.88;5140107;28;20038;-81
2022/10/06 05:08:11;;;;;;;0.40;0.40;;;;;;;13.28;67.50;102098.28;5105833;28;20396;-82
2022/10/06 05:10:41;;;;;;;0.82;0.80;;;;;;;13.21;67.39;102091.38;5124831;28;20043;-83
2022/10/06 05:13:13;;;;;;;0.40;0.40;;;;;;;13.40;66.97;102105.16;5105787;28;20039;-83
2022/10/06 05:15:58;;;;;;;2.58;2.00;;;;;;;13.21;67.10;102110.69;5094364;28;20050;-83
2022/10/06 05:18:31;;;;;;;1.55;0.85;;;;;;;13.22;67.10;102103.66;5120729;28;20565;-83
2022/10/06 05:21:09;;;;;;;0.30;0.30;;;;;;;13.06;67.39;102113.56;5154953;28;20093;-81
2022/10/06 05:23:41;;;;;;;0.93;0.80;;;;;;;13.34;66.78;102118.41;5154229;28;20049;-82
2022/10/06 05:26:15;;;;;;;0.55;0.55;;;;;;;13.30;66.86;102127.25;5122214;28;20209;-83
2022/10/06 05:28:46;;;;;;;0.38;0.38;;;;;;;13.41;66.76;102125.34;5120774;28;20070;-83
2022/10/06 05:31:31;;;;;;;1.33;1.27;;;;;;;13.37;66.56;102139.44;5152670;28;20110;-82
2022/10/06 05:34:05;;;;;;;0.20;0.20;;;;;;;13.28;66.71;102143.09;5131594;28;20039;-82
2022/10/06 05:36:36;;;;;;;0.57;0.57;;;;;;;13.33;66.46;102148.31;5129247;28;20034;-83
2022/10/06 05:39:09;;;;;;;1.02;1.02;;;;;;;13.33;66.63;102151.78;5137833;28;20390;-82
2022/10/06 05:41:40;;;;;;;0.32;0.32;;;;;;;13.44;66.06;102151.66;5153601;28;20101;-82
2022/10/06 05:44:10;;;;;;;3.47;1.23;;;;;;;13.28;66.23;102156.28;5089664;28;20681;-82
2022/10/06 05:46:41;;;;;;;0.88;0.80;;;;;;;13.17;66.72;102168.72;5138270;28;20034;-83
2022/10/06 05:49:12;;;;;;;1.08;1.08;;;;;;;12.97;67.11;102172.53;5103772;28;20110;-82
2022/10/06 05:51:42;;;;;;;0.40;0.40;;;;;;;13.01;67.09;102168.97;5121158;28;20039;-81
2022/10/06 05:54:13;;;;;;;1.08;0.73;;;;;;;13.16;66.67;102174.91;5121241;28;20081;-80
2022/10/06 05:56:43;;;;;;;0.55;0.55;;;;;;;13.19;66.44;102178.34;5137308;28;20054;-79
2022/10/06 05:59:14;;;;;;;0.55;0.55;;;;;;;12.94;66.86;102187.50;5118012;28;20055;-81
2022/10/06 06:01:45;;;;;;;6.72;1.73;;;;;;;12.81;67.11;102187.69;5119620;28;20218;-79
2022/10/06 06:04:17;;;;;;;0.25;0.25;;;;;;;12.75;67.10;102198.28;5134605;28;20527;-80
2022/10/06 06:06:47;;;;;;;1.23;1.13;;;;;;;12.74;67.14;102197.41;5120472;28;20127;-80
2022/10/06 06:09:20;;;;;;;1.27;1.17;;;;;;;12.54;67.70;102195.00;5124191;28;20038;-82
2022/10/06 06:11:53;;;;;;;0.30;0.30;;;;;;;12.55;67.72;102194.13;5125976;28;20162;-84
2022/10/06 06:17:15;;;;;;;2.05;1.65;;;;;;;12.51;67.89;102210.88;5119141;28;20422;-82
2022/10/06 06:19:46;;;;;;;0.35;0.35;;;;;;;12.41;68.03;102212.72;5117629;28;20051;-82
2022/10/06 06:22:17;;;;;;;0.30;0.30;;;;;;;12.34;68.50;102220.72;5106830;28;20042;-82
2022/10/06 06:24:47;;;;;;;0.45;0.45;;;;;;;12.48;67.93;102221.41;5089692;28;20062;-79
2022/10/06 06:27:19;;;;;;;0.50;0.50;;;;;;;12.23;68.53;102224.31;5156087;28;20509;-80
2022/10/06 06:29:49;;;;;;;0.20;0.20;;;;;;;12.16;68.67;102220.00;5106421;28;20046;-82
2022/10/06 06:32:20;;;;;;;0.35;0.35;;;;;;;12.23;68.44;102226.09;5125998;28;20599;-80
2022/10/06 06:34:51;;;;;;;0.85;0.85;;;;;;;12.42;67.92;102226.75;5106903;28;20039;-81
2022/10/06 06:37:22;;;;;;;0.73;0.73;;;;;;;12.20;68.45;102234.84;5109683;28;20737;-80
2022/10/06 06:39:52;;;;;;;1.02;0.93;;;;;;;12.33;68.44;102247.91;5108668;28;20050;-80
2022/10/06 06:42:32;;;;;;;0.50;0.50;;;;;;;12.34;68.42;102244.41;5124343;28;20035;-79
2022/10/06 06:45:03;;;;;;;0.93;0.70;;;;;;;12.39;68.09;102250.47;5106360;28;20506;-80
2022/10/06 06:47:33;;;;;;;0.30;0.30;;;;;;;12.25;68.61;102251.50;5156352;28;20125;-78
2022/10/06 06:50:09;;;;;;;0.57;0.57;;;;;;;12.18;69.17;102255.06;5107180;28;20423;-80
2022/10/06 06:52:40;;;;;;;0.30;0.30;;;;;;;12.18;69.07;102248.91;5106614;28;20491;-81
2022/10/06 06:55:11;;;;;;;8.85;1.52;;;;;;;12.22;69.58;102258.53;5107409;28;20066;-81
2022/10/06 06:57:41;;;;;;;0.30;0.30;;;;;;;12.09;70.02;102265.69;5178921;28;20043;-81
2022/10/06 07:00:12;;;;;;;0.98;0.98;;;;;;;12.14;69.47;102269.13;5160211;28;20107;-79
2022/10/06 07:02:43;;;;;;;0.50;0.50;;;;;;;12.18;69.67;102276.13;5153402;28;20031;-80
2022/10/06 07:05:13;;;;;;;0.30;0.30;;;;;;;12.15;70.05;102275.28;5121260;28;20071;-81
2022/10/06 07:07:45;;;;;;;2.47;0.90;;;;;;;12.30;69.74;102279.50;5139207;28;20050;-81
2022/10/06 07:10:16;;;;;;;0.60;0.60;;;;;;;12.21;69.61;102283.97;5106358;28;20038;-82
2022/10/06 07:12:47;;;;;;;0.75;0.75;;;;;;;12.28;69.94;102283.03;5121319;28;20491;-82
2022/10/06 07:26:39;;;;;;;0.20;0.20;;;;;;;12.41;69.75;102315.38;5156028;28;20034;-80
2022/10/06 07:29:09;;;;;;;1.50;1.40;;;;;;;12.39;69.99;102321.53;5120386;28;20046;-81
2022/10/06 07:31:42;;;;;;;6.97;1.23;;;;;;;12.37;69.98;102324.19;5123326;28;20042;-81
2022/10/06 07:34:13;;;;;;;8.98;0.70;;;;;;;12.55;69.65;102332.81;5119341;28;20046;-81
2022/10/06 07:36:45;;;;;;;0.30;0.30;;;;;;;12.65;69.40;102328.31;5108003;28;20046;-81
2022/10/06 07:39:17;;;;;;;1.27;0.82;;;;;;;12.49;69.98;102338.13;5090054;28;20043;-80
2022/10/06 07:41:47;;;;;;;0.30;0.30;;;;;;;12.48;70.11;102341.66;5110806;28;20046;-80
2022/10/06 07:44:19;;;;;;;1.17;1.08;;;;;;;12.53;70.48;102348.59;5111503;28;20053;-81
2022/10/06 07:46:51;;;;;;;0.88;0.63;;;;;;;12.50;70.19;102347.75;5144097;28;20031;-81
2022/10/06 07:49:21;;;;;;;2.15;1.23;;;;;;;12.47;70.38;102353.94;5137652;28;20234;-81
2022/10/06 07:51:52;;;;;;;0.40;0.40;;;;;;;12.51;71.11;102358.31;5134795;28;20038;-80
2022/10/06 07:54:24;;;;;;;4.35;0.93;;;;;;;12.40;71.12;102361.00;5138124;28;20043;-80
2022/10/06 07:56:54;;;;;;;0.63;0.63;;;;;;;12.58;70.50;102365.25;5122548;28;20450;-80
2022/10/06 07:59:25;;;;;;;0.30;0.30;;;;;;;12.59;71.23;102364.38;5137725;28;20051;-80
2022/10/06 08:01:56;;;;;;;1.17;1.13;;;;;;;12.67;70.47;102369.53;5105119;28;20034;-81
2022/10/06 08:04:26;;;;;;;0.25;0.25;;;;;;;12.69;70.62;102373.03;5104864;28;20042;-80
2022/10/06 08:06:58;;;;;;;0.75;0.75;;;;;;;12.76;70.44;102371.25;5138395;28;20058;-81
2022/10/06 08:09:29;;;;;;;0.63;0.60;;;;;;;12.82;70.22;102384.34;5119298;28;20498;-81
2022/10/06 08:12:31;;;;;;;1.00;1.00;;;;;;;12.85;70.18;102384.28;5136187;28;20049;-81
2022/10/06 08:14:50;;;;;;;0.60;0.60;;;;;;;12.98;69.62;102384.19;5120688;28;20114;-81
2022/10/06 08:17:21;;;;;;;0.20;0.20;;;;;;;12.97;69.53;102391.22;5137805;28;20611;-81
2022/10/06 08:19:53;;;;;;;1.65;1.02;;;;;;;13.05;69.12;102386.75;5148456;28;20055;-81
2022/10/06 08:22:28;;;;;;;0.20;0.20;;;;;;;12.97;69.11;102385.06;5120826;28;20039;-80
2022/10/06 08:24:59;;;;;;;2.25;2.05;;;;;;;13.10;69.03;102383.16;5119208;28;20581;-81
2022/10/06 08:27:30;;;;;;;0.20;0.20;;;;;;;13.20;69.18;102395.38;5155604;28;20083;-80
2022/10/06 08:30:01;;;;;;;2.38;0.60;;;;;;;13.22;68.57;102394.44;5104178;28;20724;-80
2022/10/06 08:32:33;;;;;;;0.15;0.15;;;;;;;13.22;69.26;102396.22;5090241;28;20061;-80
2022/10/06 08:35:10;;;;;;;0.25;0.25;;;;;;;13.21;68.73;102397.97;5136808;28;20047;-80
2022/10/06 08:37:41;;;;;;;0.40;0.40;;;;;;;13.29;68.55;102391.72;5154066;28;20042;-81
2022/10/06 08:40:14;;;;;;;0.93;0.93;;;;;;;13.22;68.78;102397.09;5100695;28;20102;-81
2022/10/06 08:42:51;;;;;;;0.65;0.65;;;;;;;13.30;68.69;102394.38;5135345;28;20161;-81
2022/10/06 08:45:42;;;;;;;0.20;0.20;;;;;;;13.44;68.16;102396.84;5117825;28;20548;-80
2022/10/06 08:48:17;;;;;;;;;;;;;;;13.29;68.21;102404.91;5115039;28;20495;-81
2022/10/06 08:51:17;;;;;;;0.55;0.55;;;;;;;13.28;68.43;102406.69;5150048;28;20278;-80
2022/10/06 08:54:18;;;;;;;0.80;0.70;;;;;;;13.33;68.17;102402.22;5137124;28;20045;-80
2022/10/06 08:57:27;;;;;;;2.20;1.08;;;;;;;13.41;68.39;102409.19;5133784;28;20042;-81
2022/10/06 08:59:58;;;;;;;0.20;0.20;;;;;;;13.43;68.51;102415.34;5127716;28;20043;-81
2022/10/06 09:02:38;;;;;;;0.50;0.50;;;;;;;13.36;68.32;102422.41;5137664;28;20610;-81
2022/10/06 09:05:14;;;;;;;0.30;0.30;;;;;;;13.41;68.20;102425.03;5150897;28;20460;-80
2022/10/06 09:08:24;;;;;;;0.20;0.20;;;;;;;13.43;67.98;102426.75;5125826;28;20043;-80
2022/10/06 09:11:45;;;;;;;0.30;0.30;;;;;;;13.49;67.72;102433.72;5125337;28;20042;-81
2022/10/06 09:14:32;;;;;;;1.00;0.70;;;;;;;13.52;67.25;102434.53;5122248;28;20050;-82
2022/10/06 09:17:09;;;;;;;0.30;0.30;;;;;;;13.58;67.52;102435.38;5118263;28;20065;-81
2022/10/06 09:20:19;;;;;;;0.43;0.43;;;;;;;13.67;67.25;102444.03;5104019;28;20074;-82
2022/10/06 09:22:50;;;;;;;0.20;0.20;;;;;;;13.68;67.17;102444.91;5135156;28;20066;-81
2022/10/06 09:25:26;;;;;;;0.22;0.22;;;;;;;13.79;66.28;102443.00;5134994;28;20071;-81
2022/10/06 09:27:59;;;;;;;0.20;0.20;;;;;;;13.82;66.41;102445.63;5136073;28;20039;-82
2022/10/06 09:30:30;;;;;;;0.75;0.55;;;;;;;13.80;66.04;102444.75;5131556;28;20399;-81
2022/10/06 09:33:03;;;;;;;0.30;0.30;;;;;;;13.76;66.38;102456.22;5152318;28;20050;-81
2022/10/06 09:36:05;;;;;;;0.32;0.32;;;;;;;13.87;65.79;102452.59;5117652;28;20606;-81
2022/10/06 09:38:46;;;;;;;3.63;1.88;;;;;;;13.91;65.97;102452.53;5118521;28;20059;-80
2022/10/06 09:41:17;;;;;;;0.20;0.20;;;;;;;13.97;66.00;102459.50;5109797;28;20039;-82
2022/10/06 09:43:54;;;;;;;9.20;0.43;;;;;;;13.92;65.07;102458.69;5135267;28;20419;-81
2022/10/06 09:46:40;;;;;;;12.63;0.77;;;;;;;13.98;63.81;102458.59;5137356;28;20042;-84
2022/10/06 09:49:21;;;;;;;1.05;0.70;;;;;;;14.03;64.23;102456.78;5124218;28;20050;-83
2022/10/06 09:52:13;;;;;;;1.65;1.27;;;;;;;14.06;64.72;102456.72;5161577;28;20045;-83
2022/10/06 09:54:44;;;;;;;0.32;0.32;;;;;;;14.04;62.98;102463.78;5123400;28;20082;-82
2022/10/06 09:57:22;;;;;;;0.50;0.50;;;;;;;14.03;60.82;102469.97;5125021;28;20085;-82
2022/10/06 09:59:53;;;;;;;0.20;0.20;;;;;;;14.09;61.57;102461.94;5123034;28;20070;-82
2022/10/06 10:02:35;;;;;;;0.35;0.35;;;;;;;14.11;62.12;102465.44;5141900;28;20073;-80
2022/10/06 10:05:26;;;;;;;0.97;0.57;;;;;;;14.10;61.48;102463.69;5159713;28;20046;-82
2022/10/06 10:08:03;;;;;;;0.20;0.20;;;;;;;14.19;60.53;102462.72;5133178;28;20034;-82
2022/10/06 10:10:35;;;;;;;0.50;0.50;;;;;;;14.17;58.75;102465.34;5135098;28;20042;-81
2022/10/06 10:13:24;;;;;;;0.50;0.50;;;;;;;14.18;60.37;102460.97;5103239;28;20069;-81
2022/10/06 10:16:02;;;;;;;0.30;0.30;;;;;;;14.31;59.72;102461.66;5129550;28;20515;-82
2022/10/06 10:18:34;;;;;;;0.20;0.20;;;;;;;14.31;59.48;102466.94;5097327;28;20073;-82
2022/10/06 10:21:09;;;;;;;0.55;0.55;;;;;;;14.39;59.81;102467.69;5125066;28;20031;-83
2022/10/06 10:23:54;;;;;;;0.30;0.30;;;;;;;14.39;60.36;102467.69;5140366;28;20075;-83
2022/10/06 10:26:46;;;;;;;1.65;1.17;;;;;;;14.44;60.11;102468.50;5081661;28;20049;-83
2022/10/06 10:30:03;;;;;;;0.70;0.70;;;;;;;14.40;59.35;102466.81;5154487;28;20130;-82
2022/10/06 10:32:52;;;;;;;0.63;0.60;;;;;;;14.44;59.04;102472.91;5119696;28;20085;-83
2022/10/06 10:35:31;;;;;;;0.60;0.60;;;;;;;14.47;59.44;102472.84;5121589;28;20078;-83
2022/10/06 10:38:23;;;;;;;0.43;0.43;;;;;;;14.53;58.46;102471.88;5122000;28;21771;-84
2022/10/06 10:41:01;;;;;;;0.30;0.30;;;;;;;14.55;59.07;102470.09;5147225;28;20031;-82
2022/10/06 10:43:44;;;;;;;5.00;0.65;;;;;;;14.65;57.55;102474.34;5121426;28;20480;-82
2022/10/06 10:46:28;;;;;;;0.53;0.53;;;;;;;14.67;57.42;102475.19;5123193;28;20083;-81
2022/10/06 10:49:12;;;;;;;2.28;0.57;;;;;;;14.72;56.85;102477.78;5123438;28;20680;-82
2022/10/06 10:51:52;;;;;;;0.40;0.40;;;;;;;14.72;56.10;102473.38;5123863;28;20617;-84
2022/10/06 10:54:29;;;;;;;0.40;0.40;;;;;;;14.73;56.28;102475.13;5140278;28;20078;-81
2022/10/06 10:57:00;;;;;;;2.72;1.98;;;;;;;14.83;57.46;102478.47;5140599;28;20035;-84
2022/10/06 10:59:34;;;;;;;0.70;0.70;;;;;;;14.84;55.94;102479.34;5126211;28;20055;-83
2022/10/06 11:02:18;;;;;;;0.20;0.20;;;;;;;14.89;56.16;102473.06;5140361;28;20118;-84
2022/10/06 11:04:53;;;;;;;2.10;1.38;;;;;;;14.97;55.96;102480.00;5136941;28;20504;-84
2022/10/06 11:07:48;;;;;;;0.40;0.40;;;;;;;14.98;55.43;102482.63;5120763;28;20410;-82
2022/10/06 11:10:27;;;;;;;0.20;0.20;;;;;;;15.04;56.24;102479.88;5137577;28;20157;-82
2022/10/06 11:13:21;;;;;;;0.30;0.30;;;;;;;15.06;55.96;102485.13;5148566;28;20646;-83
2022/10/06 11:16:03;;;;;;;0.57;0.57;;;;;;;15.10;55.47;102479.75;5120085;28;20042;-81
2022/10/06 11:18:53;;;;;;;2.03;1.55;;;;;;;15.13;55.28;102473.53;5137233;28;20129;-82
2022/10/06 11:21:53;;;;;;;0.30;0.30;;;;;;;15.20;55.02;102484.88;5125104;28;20042;-82
2022/10/06 11:24:52;;;;;;;3.75;0.93;;;;;;;15.23;55.34;102482.19;5171807;28;20072;-82
2022/10/06 11:27:29;;;;;;;0.25;0.25;;;;;;;15.50;53.54;102483.44;5121674;28;20129;-82
2022/10/06 11:30:10;;;;;;;0.40;0.40;;;;;;;15.57;52.55;102481.56;5134855;28;20050;-83
2022/10/06 11:33:08;;;;;;;0.32;0.32;;;;;;;15.46;53.66;102478.22;5109978;28;20129;-85
2022/10/06 11:35:43;;;;;;;0.32;0.32;;;;;;;15.73;53.82;102479.44;5125596;28;20111;-84
2022/10/06 11:38:39;;;;;;;6.28;2.83;;;;;;;16.01;52.39;102477.09;5123035;28;20081;-83
2022/10/06 11:41:12;;;;;;;0.30;0.30;;;;;;;15.98;51.15;102477.19;5137923;28;20046;-83
2022/10/06 11:43:59;;;;;;;1.50;1.40;;;;;;;15.93;51.44;102480.84;5162001;28;20035;-83
2022/10/06 11:46:51;;;;;;;0.40;0.40;;;;;;;15.88;53.39;102475.66;5176566;28;20039;-83
2022/10/06 11:49:28;;;;;;;0.52;0.52;;;;;;;16.01;52.58;102474.47;5179430;28;20056;-83
2022/10/06 11:52:14;;;;;;;0.30;0.30;;;;;;;16.38;50.90;102471.91;5159131;28;20030;-83
2022/10/06 11:55:03;;;;;;;1.40;1.15;;;;;;;16.51;51.27;102473.31;5152302;28;20126;-83
2022/10/06 11:57:56;;;;;;;0.30;0.30;;;;;;;16.41;52.08;102471.81;5170231;28;20094;-82
2022/10/06 12:00:33;;;;;;;0.40;0.40;;;;;;;16.35;51.07;102473.69;5138666;28;20109;-82
2022/10/06 12:03:45;;;;;;;0.50;0.50;;;;;;;16.40;51.62;102470.94;5139634;28;20050;-83
2022/10/06 12:06:55;;;;;;;0.43;0.43;;;;;;;17.05;47.40;102465.84;5119749;28;20034;-82
2022/10/06 12:09:29;;;;;;;0.20;0.20;;;;;;;16.89;49.38;102462.69;5109016;28;20091;-82
2022/10/06 12:12:08;;;;;;;1.08;0.68;;;;;;;16.81;49.18;102460.25;5153469;28;20069;-82
2022/10/06 12:14:54;;;;;;;1.13;0.80;;;;;;;17.19;48.11;102461.03;5120601;28;20044;-83
2022/10/06 12:17:29;;;;;;;0.22;0.22;;;;;;;17.19;49.63;102455.72;5138872;28;20047;-82
2022/10/06 12:20:17;;;;;;;0.20;0.20;;;;;;;17.36;47.34;102449.94;5124243;28;20145;-83